Terminal Aerodrome Forecast
Issued by NWS Austin/San Antonio, TX

Home | Current Version | Previous Version | Text Only | Print | Product List | Glossary On
Versions: 1 2 3 4 5 6 7 8 9 10 11 12 13
000
FTUS44 KEWX 230500
TAFAUS
TAF
KAUS 230527Z 2306/2412 VRB03KT P6SM SCT060 BKN250
     FM231200 06005KT P6SM FEW035 OVC060
     FM240200 13003KT P6SM SCT040 SCT250=

USA.gov is the U.S. government's official web portal to all federal, state and local government web resources and services.